Impacts TAF Board INFO
FOR SITUATIONAL AWARENESS. NOT TO BE USED FOR FLIGHT PLANNING PURPOSES.
IDs:

KJFK - New York/Kennedy Int, NY, US

Issued at 0225 UTC 22 Jul 2017
Updated at 0511 UTC 22 Jul 2017
Potential Impact None Slight Moderate High
Time0451Z 22/06Z 22/07Z 22/08Z 22/09Z 22/10Z 22/11Z 22/12Z 22/13Z 22/14Z 22/15Z 22/16Z 22/17Z 22/18Z>>
Type OBS PRVL PRVL PRVL PRVL PRVL PRVL PRVL PRVL PRVL PRVL PRVL PRVL PRVL
VIS 10 >6 >6 >6 >6 >6 >6 >6 >6 >6 >6 >6 >6 >6
CIG 250 260 -- -- -- -- -- -- -- -- -- -- -- 200
Cover BKN BKN SCT SCT SCT SCT SCT SCT SCT FEW FEW FEW FEW BKN
FltCat VFR VFR VFR VFR VFR VFR VFR VFR VFR VFR VFR VFR VFR VFR
WX -- -- -- -- -- -- -- -- -- -- -- -- -- --
WDir 240 190 350 350 350 350 350 350 350 100 100 100 100 190
WSpd 8 8 5 5 5 5 5 5 5 6 6 6 6 8
WGst -- -- -- -- -- -- -- -- -- -- -- -- -- --

Raw TAF
KJFK 220225Z 2202/2306 19008KT P6SM FEW060 BKN260
  FM220700 35005KT P6SM SCT060
  FM221400 10006KT P6SM FEW060
  FM221800 19008KT P6SM SCT050 BKN200
  FM222300 17006KT P6SM SCT050 OVC120


Raw METAR
KJFK 220451Z 24008KT 10SM FEW060 BKN250 28/23 A2988 RMK AO2 SLP117 T02780233 403500261
KJFK 220351Z 22009KT 10SM FEW060 BKN250 28/23 A2988 RMK AO2 SLP118 T02780233
KJFK 220251Z 19007KT 10SM FEW060 BKN250 27/24 A2988 RMK AO2 SLP118 T02670244 53008

METAR Board
Radar Display
Forecast Discussion

FOR SITUATIONAL AWARENESS. NOT TO BE USED FOR FLIGHT PLANNING PURPOSES.